sensor_id;sensor_type;location;lat;lon;timestamp;P1;durP1;ratioP1;P2;durP2;ratioP2
60665;SDS011;59128;44.642;21.188;2024-01-30T00:00:04;63.90;;;43.50;;
60665;SDS011;59128;44.642;21.188;2024-01-30T00:02:31;56.40;;;39.35;;
60665;SDS011;59128;44.642;21.188;2024-01-30T00:04:57;52.47;;;38.50;;
60665;SDS011;59128;44.642;21.188;2024-01-30T00:07:23;58.85;;;41.70;;
60665;SDS011;59128;44.642;21.188;2024-01-30T00:09:49;82.67;;;54.43;;
60665;SDS011;59128;44.642;21.188;2024-01-30T00:12:15;60.55;;;44.17;;
60665;SDS011;59128;44.642;21.188;2024-01-30T00:14:42;57.25;;;40.60;;
60665;SDS011;59128;44.642;21.188;2024-01-30T00:17:11;58.83;;;42.83;;
60665;SDS011;59128;44.642;21.188;2024-01-30T00:19:37;63.17;;;44.07;;
60665;SDS011;59128;44.642;21.188;2024-01-30T00:22:03;64.72;;;45.15;;
60665;SDS011;59128;44.642;21.188;2024-01-30T00:24:29;68.75;;;46.97;;
60665;SDS011;59128;44.642;21.188;2024-01-30T00:26:55;69.55;;;46.85;;
60665;SDS011;59128;44.642;21.188;2024-01-30T00:29:21;71.25;;;47.42;;
60665;SDS011;59128;44.642;21.188;2024-01-30T00:31:47;71.13;;;47.97;;
60665;SDS011;59128;44.642;21.188;2024-01-30T00:34:14;69.97;;;48.33;;
60665;SDS011;59128;44.642;21.188;2024-01-30T00:36:40;61.20;;;44.08;;
60665;SDS011;59128;44.642;21.188;2024-01-30T00:39:06;72.05;;;50.45;;
60665;SDS011;59128;44.642;21.188;2024-01-30T00:41:34;57.65;;;43.00;;
60665;SDS011;59128;44.642;21.188;2024-01-30T00:44:00;58.88;;;42.67;;
60665;SDS011;59128;44.642;21.188;2024-01-30T00:46:26;63.28;;;43.33;;
60665;SDS011;59128;44.642;21.188;2024-01-30T00:48:52;64.72;;;43.33;;
60665;SDS011;59128;44.642;21.188;2024-01-30T00:51:18;58.35;;;40.00;;
60665;SDS011;59128;44.642;21.188;2024-01-30T00:53:44;73.88;;;47.10;;
60665;SDS011;59128;44.642;21.188;2024-01-30T00:56:10;71.68;;;45.53;;
60665;SDS011;59128;44.642;21.188;2024-01-30T00:58:36;67.15;;;43.15;;
60665;SDS011;59128;44.642;21.188;2024-01-30T01:01:03;66.07;;;44.97;;
60665;SDS011;59128;44.642;21.188;2024-01-30T01:03:29;53.22;;;37.30;;
60665;SDS011;59128;44.642;21.188;2024-01-30T01:05:55;92.30;;;57.57;;
60665;SDS011;59128;44.642;21.188;2024-01-30T01:08:21;72.78;;;48.55;;
60665;SDS011;59128;44.642;21.188;2024-01-30T01:10:47;117.20;;;74.13;;
60665;SDS011;59128;44.642;21.188;2024-01-30T01:13:13;81.40;;;53.63;;
60665;SDS011;59128;44.642;21.188;2024-01-30T01:15:39;70.95;;;46.17;;
60665;SDS011;59128;44.642;21.188;2024-01-30T01:18:05;50.58;;;36.65;;
60665;SDS011;59128;44.642;21.188;2024-01-30T01:20:32;56.97;;;40.17;;
60665;SDS011;59128;44.642;21.188;2024-01-30T01:22:58;65.43;;;43.80;;
60665;SDS011;59128;44.642;21.188;2024-01-30T01:25:24;48.05;;;35.08;;
60665;SDS011;59128;44.642;21.188;2024-01-30T01:27:50;37.30;;;27.42;;
60665;SDS011;59128;44.642;21.188;2024-01-30T01:30:19;39.05;;;28.90;;
60665;SDS011;59128;44.642;21.188;2024-01-30T01:32:47;36.80;;;27.45;;
60665;SDS011;59128;44.642;21.188;2024-01-30T01:35:20;37.08;;;28.58;;
60665;SDS011;59128;44.642;21.188;2024-01-30T01:37:46;35.90;;;26.10;;
60665;SDS011;59128;44.642;21.188;2024-01-30T01:40:12;50.50;;;36.03;;
60665;SDS011;59128;44.642;21.188;2024-01-30T01:42:38;45.97;;;31.95;;
60665;SDS011;59128;44.642;21.188;2024-01-30T01:45:04;45.08;;;33.58;;
60665;SDS011;59128;44.642;21.188;2024-01-30T01:47:30;40.30;;;30.35;;
60665;SDS011;59128;44.642;21.188;2024-01-30T01:49:56;43.33;;;31.10;;
60665;SDS011;59128;44.642;21.188;2024-01-30T01:52:23;40.37;;;29.93;;
60665;SDS011;59128;44.642;21.188;2024-01-30T01:54:49;37.58;;;28.60;;
60665;SDS011;59128;44.642;21.188;2024-01-30T01:57:15;43.85;;;32.22;;
60665;SDS011;59128;44.642;21.188;2024-01-30T01:59:41;39.50;;;29.30;;
60665;SDS011;59128;44.642;21.188;2024-01-30T02:02:08;42.78;;;30.30;;
60665;SDS011;59128;44.642;21.188;2024-01-30T02:04:36;59.42;;;40.13;;
60665;SDS011;59128;44.642;21.188;2024-01-30T02:07:03;43.53;;;31.33;;
60665;SDS011;59128;44.642;21.188;2024-01-30T02:09:29;50.15;;;36.08;;
60665;SDS011;59128;44.642;21.188;2024-01-30T02:11:55;55.45;;;39.22;;
60665;SDS011;59128;44.642;21.188;2024-01-30T02:14:21;53.72;;;38.00;;
60665;SDS011;59128;44.642;21.188;2024-01-30T02:16:47;53.95;;;36.45;;
60665;SDS011;59128;44.642;21.188;2024-01-30T02:19:13;45.85;;;33.03;;
60665;SDS011;59128;44.642;21.188;2024-01-30T02:21:39;60.47;;;41.45;;
60665;SDS011;59128;44.642;21.188;2024-01-30T02:24:05;51.85;;;36.75;;
60665;SDS011;59128;44.642;21.188;2024-01-30T02:26:31;69.43;;;48.17;;
60665;SDS011;59128;44.642;21.188;2024-01-30T02:28:57;53.78;;;38.50;;
60665;SDS011;59128;44.642;21.188;2024-01-30T02:31:24;46.97;;;33.28;;
60665;SDS011;59128;44.642;21.188;2024-01-30T02:33:50;66.07;;;45.50;;
60665;SDS011;59128;44.642;21.188;2024-01-30T02:36:16;43.50;;;31.73;;
60665;SDS011;59128;44.642;21.188;2024-01-30T02:38:43;52.35;;;38.08;;
60665;SDS011;59128;44.642;21.188;2024-01-30T02:41:11;33.92;;;26.63;;
60665;SDS011;59128;44.642;21.188;2024-01-30T02:43:37;34.15;;;26.42;;
60665;SDS011;59128;44.642;21.188;2024-01-30T02:46:03;58.40;;;41.20;;
60665;SDS011;59128;44.642;21.188;2024-01-30T02:48:29;47.47;;;35.03;;
60665;SDS011;59128;44.642;21.188;2024-01-30T02:50:55;71.88;;;53.15;;
60665;SDS011;59128;44.642;21.188;2024-01-30T02:53:23;61.38;;;44.25;;
60665;SDS011;59128;44.642;21.188;2024-01-30T02:55:49;50.88;;;37.88;;
60665;SDS011;59128;44.642;21.188;2024-01-30T02:58:15;40.70;;;31.50;;
60665;SDS011;59128;44.642;21.188;2024-01-30T03:00:41;49.88;;;38.65;;
60665;SDS011;59128;44.642;21.188;2024-01-30T03:03:07;33.47;;;26.65;;
60665;SDS011;59128;44.642;21.188;2024-01-30T03:05:33;34.72;;;27.40;;
60665;SDS011;59128;44.642;21.188;2024-01-30T03:07:59;37.10;;;29.40;;
60665;SDS011;59128;44.642;21.188;2024-01-30T03:10:25;45.47;;;36.43;;
60665;SDS011;59128;44.642;21.188;2024-01-30T03:12:51;47.17;;;37.70;;
60665;SDS011;59128;44.642;21.188;2024-01-30T03:15:17;37.03;;;28.33;;
60665;SDS011;59128;44.642;21.188;2024-01-30T03:17:43;48.97;;;38.13;;
60665;SDS011;59128;44.642;21.188;2024-01-30T03:20:10;44.40;;;34.10;;
60665;SDS011;59128;44.642;21.188;2024-01-30T03:22:36;38.50;;;30.83;;
60665;SDS011;59128;44.642;21.188;2024-01-30T03:25:02;34.97;;;27.92;;
60665;SDS011;59128;44.642;21.188;2024-01-30T03:27:28;37.38;;;30.05;;
60665;SDS011;59128;44.642;21.188;2024-01-30T03:29:54;35.08;;;27.35;;
60665;SDS011;59128;44.642;21.188;2024-01-30T03:32:20;30.45;;;24.95;;
60665;SDS011;59128;44.642;21.188;2024-01-30T03:34:46;34.88;;;28.10;;
60665;SDS011;59128;44.642;21.188;2024-01-30T03:37:12;27.75;;;22.88;;
60665;SDS011;59128;44.642;21.188;2024-01-30T03:39:38;29.90;;;25.30;;
60665;SDS011;59128;44.642;21.188;2024-01-30T03:42:04;33.80;;;26.25;;
60665;SDS011;59128;44.642;21.188;2024-01-30T03:44:30;28.48;;;22.95;;
60665;SDS011;59128;44.642;21.188;2024-01-30T03:46:56;30.58;;;23.67;;
60665;SDS011;59128;44.642;21.188;2024-01-30T03:49:22;39.80;;;29.63;;
60665;SDS011;59128;44.642;21.188;2024-01-30T03:51:49;33.10;;;26.08;;
60665;SDS011;59128;44.642;21.188;2024-01-30T03:54:15;29.33;;;21.67;;
60665;SDS011;59128;44.642;21.188;2024-01-30T03:56:41;30.27;;;24.05;;
60665;SDS011;59128;44.642;21.188;2024-01-30T03:59:07;27.90;;;21.90;;
60665;SDS011;59128;44.642;21.188;2024-01-30T04:01:33;26.17;;;20.63;;
60665;SDS011;59128;44.642;21.188;2024-01-30T04:03:59;29.65;;;22.58;;
60665;SDS011;59128;44.642;21.188;2024-01-30T04:06:26;29.20;;;24.42;;
60665;SDS011;59128;44.642;21.188;2024-01-30T04:08:52;38.35;;;27.73;;
60665;SDS011;59128;44.642;21.188;2024-01-30T04:11:18;31.42;;;26.73;;
60665;SDS011;59128;44.642;21.188;2024-01-30T04:13:45;28.42;;;22.92;;
60665;SDS011;59128;44.642;21.188;2024-01-30T04:16:22;29.02;;;23.23;;
60665;SDS011;59128;44.642;21.188;2024-01-30T04:18:48;32.07;;;25.20;;
60665;SDS011;59128;44.642;21.188;2024-01-30T04:21:14;29.10;;;22.85;;
60665;SDS011;59128;44.642;21.188;2024-01-30T04:23:41;29.63;;;23.03;;
60665;SDS011;59128;44.642;21.188;2024-01-30T04:26:07;26.83;;;20.70;;
60665;SDS011;59128;44.642;21.188;2024-01-30T04:28:33;29.58;;;23.15;;
60665;SDS011;59128;44.642;21.188;2024-01-30T04:30:59;24.58;;;18.80;;
60665;SDS011;59128;44.642;21.188;2024-01-30T04:33:25;21.13;;;17.23;;
60665;SDS011;59128;44.642;21.188;2024-01-30T04:35:51;18.40;;;15.05;;
60665;SDS011;59128;44.642;21.188;2024-01-30T04:38:17;18.45;;;15.27;;
60665;SDS011;59128;44.642;21.188;2024-01-30T04:40:43;17.42;;;14.25;;
60665;SDS011;59128;44.642;21.188;2024-01-30T04:43:09;17.42;;;14.45;;
60665;SDS011;59128;44.642;21.188;2024-01-30T04:45:35;17.52;;;14.18;;
60665;SDS011;59128;44.642;21.188;2024-01-30T04:48:01;23.13;;;16.80;;
60665;SDS011;59128;44.642;21.188;2024-01-30T04:50:27;22.85;;;17.73;;
60665;SDS011;59128;44.642;21.188;2024-01-30T04:52:53;22.98;;;18.45;;
60665;SDS011;59128;44.642;21.188;2024-01-30T04:55:19;30.25;;;22.70;;
60665;SDS011;59128;44.642;21.188;2024-01-30T04:57:45;33.55;;;24.48;;
60665;SDS011;59128;44.642;21.188;2024-01-30T05:00:12;21.55;;;18.40;;
60665;SDS011;59128;44.642;21.188;2024-01-30T05:02:38;23.55;;;18.52;;
60665;SDS011;59128;44.642;21.188;2024-01-30T05:05:04;19.73;;;17.13;;
60665;SDS011;59128;44.642;21.188;2024-01-30T05:07:30;30.08;;;19.98;;
60665;SDS011;59128;44.642;21.188;2024-01-30T05:09:56;36.22;;;22.90;;
60665;SDS011;59128;44.642;21.188;2024-01-30T05:12:22;34.70;;;22.20;;
60665;SDS011;59128;44.642;21.188;2024-01-30T05:14:48;29.77;;;20.85;;
60665;SDS011;59128;44.642;21.188;2024-01-30T05:17:14;38.95;;;24.23;;
60665;SDS011;59128;44.642;21.188;2024-01-30T05:19:40;35.30;;;23.90;;
60665;SDS011;59128;44.642;21.188;2024-01-30T05:22:06;41.88;;;26.67;;
60665;SDS011;59128;44.642;21.188;2024-01-30T05:24:32;33.88;;;23.20;;
60665;SDS011;59128;44.642;21.188;2024-01-30T05:26:58;25.77;;;20.02;;
60665;SDS011;59128;44.642;21.188;2024-01-30T05:29:24;35.33;;;24.42;;
60665;SDS011;59128;44.642;21.188;2024-01-30T05:31:50;43.50;;;27.95;;
60665;SDS011;59128;44.642;21.188;2024-01-30T05:34:16;36.03;;;24.60;;
60665;SDS011;59128;44.642;21.188;2024-01-30T05:36:42;46.55;;;28.55;;
60665;SDS011;59128;44.642;21.188;2024-01-30T05:39:08;41.20;;;27.85;;
60665;SDS011;59128;44.642;21.188;2024-01-30T05:41:35;27.98;;;21.30;;
60665;SDS011;59128;44.642;21.188;2024-01-30T05:44:01;28.27;;;21.80;;
60665;SDS011;59128;44.642;21.188;2024-01-30T05:46:27;33.40;;;25.00;;
60665;SDS011;59128;44.642;21.188;2024-01-30T05:48:53;40.45;;;28.58;;
60665;SDS011;59128;44.642;21.188;2024-01-30T05:51:19;47.92;;;30.92;;
60665;SDS011;59128;44.642;21.188;2024-01-30T05:53:45;45.50;;;32.47;;
60665;SDS011;59128;44.642;21.188;2024-01-30T05:56:11;101.82;;;68.78;;
60665;SDS011;59128;44.642;21.188;2024-01-30T05:58:37;124.10;;;85.77;;
60665;SDS011;59128;44.642;21.188;2024-01-30T06:01:07;107.20;;;71.15;;
60665;SDS011;59128;44.642;21.188;2024-01-30T06:03:36;85.30;;;59.65;;
60665;SDS011;59128;44.642;21.188;2024-01-30T06:06:03;53.42;;;41.28;;
60665;SDS011;59128;44.642;21.188;2024-01-30T06:08:30;37.67;;;28.83;;
60665;SDS011;59128;44.642;21.188;2024-01-30T06:10:56;30.92;;;22.73;;
60665;SDS011;59128;44.642;21.188;2024-01-30T06:13:22;29.63;;;22.80;;
60665;SDS011;59128;44.642;21.188;2024-01-30T06:15:48;27.85;;;21.73;;
60665;SDS011;59128;44.642;21.188;2024-01-30T06:18:14;29.17;;;22.30;;
60665;SDS011;59128;44.642;21.188;2024-01-30T06:20:40;29.67;;;23.85;;
60665;SDS011;59128;44.642;21.188;2024-01-30T06:23:06;40.90;;;31.45;;
60665;SDS011;59128;44.642;21.188;2024-01-30T06:25:32;31.67;;;24.70;;
60665;SDS011;59128;44.642;21.188;2024-01-30T06:27:58;44.33;;;32.83;;
60665;SDS011;59128;44.642;21.188;2024-01-30T06:30:24;35.92;;;22.40;;
60665;SDS011;59128;44.642;21.188;2024-01-30T06:32:50;33.55;;;25.60;;
60665;SDS011;59128;44.642;21.188;2024-01-30T06:35:16;48.72;;;35.45;;
60665;SDS011;59128;44.642;21.188;2024-01-30T06:37:42;48.72;;;33.20;;
60665;SDS011;59128;44.642;21.188;2024-01-30T06:40:09;39.90;;;28.15;;
60665;SDS011;59128;44.642;21.188;2024-01-30T06:42:35;47.55;;;32.25;;
60665;SDS011;59128;44.642;21.188;2024-01-30T06:45:01;59.35;;;37.88;;
60665;SDS011;59128;44.642;21.188;2024-01-30T06:47:27;59.77;;;36.83;;
60665;SDS011;59128;44.642;21.188;2024-01-30T06:49:54;48.92;;;31.95;;
60665;SDS011;59128;44.642;21.188;2024-01-30T06:52:20;51.08;;;32.60;;
60665;SDS011;59128;44.642;21.188;2024-01-30T06:54:46;59.92;;;38.63;;
60665;SDS011;59128;44.642;21.188;2024-01-30T06:57:12;31.30;;;24.10;;
60665;SDS011;59128;44.642;21.188;2024-01-30T06:59:39;19.67;;;17.17;;
60665;SDS011;59128;44.642;21.188;2024-01-30T07:02:08;33.47;;;24.47;;
60665;SDS011;59128;44.642;21.188;2024-01-30T07:04:35;36.78;;;26.20;;
60665;SDS011;59128;44.642;21.188;2024-01-30T07:07:02;34.97;;;25.35;;
60665;SDS011;59128;44.642;21.188;2024-01-30T07:09:29;64.68;;;40.38;;
60665;SDS011;59128;44.642;21.188;2024-01-30T07:11:55;31.30;;;21.90;;
60665;SDS011;59128;44.642;21.188;2024-01-30T07:14:23;32.65;;;23.10;;
60665;SDS011;59128;44.642;21.188;2024-01-30T07:16:49;36.43;;;25.83;;
60665;SDS011;59128;44.642;21.188;2024-01-30T07:19:15;51.35;;;33.10;;
60665;SDS011;59128;44.642;21.188;2024-01-30T07:21:41;50.72;;;33.03;;
60665;SDS011;59128;44.642;21.188;2024-01-30T07:24:07;65.27;;;42.40;;
60665;SDS011;59128;44.642;21.188;2024-01-30T07:26:33;55.03;;;38.03;;
60665;SDS011;59128;44.642;21.188;2024-01-30T07:29:00;50.90;;;35.38;;
60665;SDS011;59128;44.642;21.188;2024-01-30T07:31:27;39.37;;;30.87;;
60665;SDS011;59128;44.642;21.188;2024-01-30T07:33:53;42.40;;;33.10;;
60665;SDS011;59128;44.642;21.188;2024-01-30T07:36:19;53.05;;;37.80;;
60665;SDS011;59128;44.642;21.188;2024-01-30T07:38:45;64.13;;;46.67;;
60665;SDS011;59128;44.642;21.188;2024-01-30T07:41:11;59.60;;;42.13;;
60665;SDS011;59128;44.642;21.188;2024-01-30T07:43:38;56.00;;;41.70;;
60665;SDS011;59128;44.642;21.188;2024-01-30T07:46:04;40.45;;;31.02;;
60665;SDS011;59128;44.642;21.188;2024-01-30T07:48:31;64.43;;;47.70;;
60665;SDS011;59128;44.642;21.188;2024-01-30T07:50:58;62.00;;;47.05;;
60665;SDS011;59128;44.642;21.188;2024-01-30T07:53:24;43.07;;;35.10;;
60665;SDS011;59128;44.642;21.188;2024-01-30T07:55:51;44.47;;;37.08;;
60665;SDS011;59128;44.642;21.188;2024-01-30T07:58:17;51.70;;;42.90;;
60665;SDS011;59128;44.642;21.188;2024-01-30T08:00:44;37.28;;;31.40;;
60665;SDS011;59128;44.642;21.188;2024-01-30T08:03:10;38.47;;;33.08;;
60665;SDS011;59128;44.642;21.188;2024-01-30T08:05:43;41.15;;;32.05;;
60665;SDS011;59128;44.642;21.188;2024-01-30T08:08:09;40.75;;;31.65;;
60665;SDS011;59128;44.642;21.188;2024-01-30T08:10:35;35.97;;;28.02;;
60665;SDS011;59128;44.642;21.188;2024-01-30T08:13:01;43.45;;;34.55;;
60665;SDS011;59128;44.642;21.188;2024-01-30T08:15:27;51.80;;;40.55;;
60665;SDS011;59128;44.642;21.188;2024-01-30T08:17:53;50.40;;;40.53;;
60665;SDS011;59128;44.642;21.188;2024-01-30T08:20:23;24.23;;;20.58;;
60665;SDS011;59128;44.642;21.188;2024-01-30T08:22:49;23.10;;;20.08;;
60665;SDS011;59128;44.642;21.188;2024-01-30T08:25:15;26.73;;;22.13;;
60665;SDS011;59128;44.642;21.188;2024-01-30T08:27:41;22.85;;;19.90;;
60665;SDS011;59128;44.642;21.188;2024-01-30T08:30:07;24.83;;;20.92;;
60665;SDS011;59128;44.642;21.188;2024-01-30T08:32:33;28.50;;;24.52;;
60665;SDS011;59128;44.642;21.188;2024-01-30T08:35:00;33.03;;;27.88;;
60665;SDS011;59128;44.642;21.188;2024-01-30T08:37:29;24.90;;;21.58;;
60665;SDS011;59128;44.642;21.188;2024-01-30T08:39:55;20.77;;;18.58;;
60665;SDS011;59128;44.642;21.188;2024-01-30T08:42:21;24.58;;;19.65;;
60665;SDS011;59128;44.642;21.188;2024-01-30T08:44:48;21.55;;;19.02;;
60665;SDS011;59128;44.642;21.188;2024-01-30T08:47:16;19.05;;;16.90;;
60665;SDS011;59128;44.642;21.188;2024-01-30T08:49:43;17.50;;;15.32;;
60665;SDS011;59128;44.642;21.188;2024-01-30T08:52:12;25.35;;;21.30;;
60665;SDS011;59128;44.642;21.188;2024-01-30T08:54:38;17.35;;;14.52;;
60665;SDS011;59128;44.642;21.188;2024-01-30T08:57:05;29.08;;;22.80;;
60665;SDS011;59128;44.642;21.188;2024-01-30T08:59:31;34.03;;;23.42;;
60665;SDS011;59128;44.642;21.188;2024-01-30T09:01:58;45.13;;;30.48;;
60665;SDS011;59128;44.642;21.188;2024-01-30T09:04:24;31.55;;;21.77;;
60665;SDS011;59128;44.642;21.188;2024-01-30T09:06:50;11.95;;;10.70;;
60665;SDS011;59128;44.642;21.188;2024-01-30T09:09:16;25.50;;;19.83;;
60665;SDS011;59128;44.642;21.188;2024-01-30T09:11:43;56.35;;;34.97;;
60665;SDS011;59128;44.642;21.188;2024-01-30T09:14:09;28.02;;;20.92;;
60665;SDS011;59128;44.642;21.188;2024-01-30T09:16:35;45.10;;;27.73;;
60665;SDS011;59128;44.642;21.188;2024-01-30T09:19:01;25.52;;;18.05;;
60665;SDS011;59128;44.642;21.188;2024-01-30T09:21:27;40.90;;;28.63;;
60665;SDS011;59128;44.642;21.188;2024-01-30T09:24:01;60.30;;;35.50;;
60665;SDS011;59128;44.642;21.188;2024-01-30T09:26:28;61.17;;;37.53;;
60665;SDS011;59128;44.642;21.188;2024-01-30T09:28:54;60.53;;;36.90;;
60665;SDS011;59128;44.642;21.188;2024-01-30T09:31:20;36.58;;;26.92;;
60665;SDS011;59128;44.642;21.188;2024-01-30T09:33:46;33.97;;;23.52;;
60665;SDS011;59128;44.642;21.188;2024-01-30T09:36:13;34.30;;;23.63;;
60665;SDS011;59128;44.642;21.188;2024-01-30T09:38:44;16.58;;;12.75;;
60665;SDS011;59128;44.642;21.188;2024-01-30T09:41:10;38.97;;;27.50;;
60665;SDS011;59128;44.642;21.188;2024-01-30T09:43:37;29.30;;;21.70;;
60665;SDS011;59128;44.642;21.188;2024-01-30T09:46:05;14.38;;;12.68;;
60665;SDS011;59128;44.642;21.188;2024-01-30T09:48:31;33.40;;;26.27;;
60665;SDS011;59128;44.642;21.188;2024-01-30T09:50:58;24.15;;;18.35;;
60665;SDS011;59128;44.642;21.188;2024-01-30T09:53:24;38.73;;;27.33;;
60665;SDS011;59128;44.642;21.188;2024-01-30T09:55:50;30.23;;;23.20;;
60665;SDS011;59128;44.642;21.188;2024-01-30T09:58:17;52.22;;;35.20;;
60665;SDS011;59128;44.642;21.188;2024-01-30T10:00:43;32.78;;;24.05;;
60665;SDS011;59128;44.642;21.188;2024-01-30T10:03:09;21.97;;;18.07;;
60665;SDS011;59128;44.642;21.188;2024-01-30T10:05:35;29.70;;;24.50;;
60665;SDS011;59128;44.642;21.188;2024-01-30T10:08:07;12.00;;;10.57;;
60665;SDS011;59128;44.642;21.188;2024-01-30T10:10:33;32.85;;;26.17;;
60665;SDS011;59128;44.642;21.188;2024-01-30T10:13:02;13.40;;;11.48;;
60665;SDS011;59128;44.642;21.188;2024-01-30T10:15:28;43.08;;;31.38;;
60665;SDS011;59128;44.642;21.188;2024-01-30T10:17:54;15.00;;;13.15;;
60665;SDS011;59128;44.642;21.188;2024-01-30T10:20:20;12.77;;;10.38;;
60665;SDS011;59128;44.642;21.188;2024-01-30T10:22:47;27.33;;;22.98;;
60665;SDS011;59128;44.642;21.188;2024-01-30T10:25:14;40.58;;;31.17;;
60665;SDS011;59128;44.642;21.188;2024-01-30T10:27:40;25.98;;;20.70;;
60665;SDS011;59128;44.642;21.188;2024-01-30T10:30:07;25.33;;;19.25;;
60665;SDS011;59128;44.642;21.188;2024-01-30T10:32:33;8.98;;;8.07;;
60665;SDS011;59128;44.642;21.188;2024-01-30T10:34:59;23.25;;;16.95;;
60665;SDS011;59128;44.642;21.188;2024-01-30T10:37:25;31.15;;;22.10;;
60665;SDS011;59128;44.642;21.188;2024-01-30T10:39:53;10.05;;;8.77;;
60665;SDS011;59128;44.642;21.188;2024-01-30T10:42:22;20.50;;;14.38;;
60665;SDS011;59128;44.642;21.188;2024-01-30T10:44:56;46.72;;;32.90;;
60665;SDS011;59128;44.642;21.188;2024-01-30T10:47:26;27.38;;;20.55;;
60665;SDS011;59128;44.642;21.188;2024-01-30T10:49:52;59.72;;;42.20;;
60665;SDS011;59128;44.642;21.188;2024-01-30T10:52:20;57.63;;;40.67;;
60665;SDS011;59128;44.642;21.188;2024-01-30T10:54:46;35.42;;;24.15;;
60665;SDS011;59128;44.642;21.188;2024-01-30T10:57:12;63.85;;;43.28;;
60665;SDS011;59128;44.642;21.188;2024-01-30T10:59:39;39.25;;;26.05;;
60665;SDS011;59128;44.642;21.188;2024-01-30T11:02:05;11.40;;;9.00;;
60665;SDS011;59128;44.642;21.188;2024-01-30T11:04:37;9.73;;;7.90;;
60665;SDS011;59128;44.642;21.188;2024-01-30T11:07:13;26.17;;;18.15;;
60665;SDS011;59128;44.642;21.188;2024-01-30T11:09:40;26.70;;;18.20;;
60665;SDS011;59128;44.642;21.188;2024-01-30T11:12:12;33.60;;;22.88;;
60665;SDS011;59128;44.642;21.188;2024-01-30T11:14:38;16.98;;;12.68;;
60665;SDS011;59128;44.642;21.188;2024-01-30T11:17:05;52.65;;;32.72;;
60665;SDS011;59128;44.642;21.188;2024-01-30T11:19:33;23.25;;;16.38;;
60665;SDS011;59128;44.642;21.188;2024-01-30T11:21:59;11.27;;;8.73;;
60665;SDS011;59128;44.642;21.188;2024-01-30T11:24:25;8.15;;;7.32;;
60665;SDS011;59128;44.642;21.188;2024-01-30T11:26:58;30.17;;;21.80;;
60665;SDS011;59128;44.642;21.188;2024-01-30T11:29:26;10.75;;;8.25;;
60665;SDS011;59128;44.642;21.188;2024-01-30T11:31:53;43.53;;;31.13;;
60665;SDS011;59128;44.642;21.188;2024-01-30T11:34:19;18.65;;;14.20;;
60665;SDS011;59128;44.642;21.188;2024-01-30T11:36:48;10.80;;;9.20;;
60665;SDS011;59128;44.642;21.188;2024-01-30T11:39:18;9.27;;;8.30;;
60665;SDS011;59128;44.642;21.188;2024-01-30T11:41:46;8.25;;;7.00;;
60665;SDS011;59128;44.642;21.188;2024-01-30T11:44:12;7.63;;;6.80;;
60665;SDS011;59128;44.642;21.188;2024-01-30T11:46:38;6.93;;;6.22;;
60665;SDS011;59128;44.642;21.188;2024-01-30T11:49:04;12.50;;;9.95;;
60665;SDS011;59128;44.642;21.188;2024-01-30T11:51:30;13.85;;;11.98;;
60665;SDS011;59128;44.642;21.188;2024-01-30T11:53:57;15.63;;;12.95;;
60665;SDS011;59128;44.642;21.188;2024-01-30T11:56:26;14.85;;;12.43;;
60665;SDS011;59128;44.642;21.188;2024-01-30T11:58:53;15.88;;;14.18;;
60665;SDS011;59128;44.642;21.188;2024-01-30T12:01:20;8.07;;;7.27;;
60665;SDS011;59128;44.642;21.188;2024-01-30T12:03:49;15.13;;;13.52;;
60665;SDS011;59128;44.642;21.188;2024-01-30T12:06:15;8.50;;;7.35;;
60665;SDS011;59128;44.642;21.188;2024-01-30T12:08:42;12.98;;;10.57;;
60665;SDS011;59128;44.642;21.188;2024-01-30T12:11:08;9.15;;;8.10;;
60665;SDS011;59128;44.642;21.188;2024-01-30T12:13:34;9.57;;;8.30;;
60665;SDS011;59128;44.642;21.188;2024-01-30T12:16:00;8.70;;;7.80;;
60665;SDS011;59128;44.642;21.188;2024-01-30T12:18:26;10.80;;;9.70;;
60665;SDS011;59128;44.642;21.188;2024-01-30T12:20:59;7.88;;;6.97;;
60665;SDS011;59128;44.642;21.188;2024-01-30T12:23:26;18.25;;;16.30;;
60665;SDS011;59128;44.642;21.188;2024-01-30T12:25:52;14.85;;;13.20;;
60665;SDS011;59128;44.642;21.188;2024-01-30T12:28:19;9.23;;;8.23;;
60665;SDS011;59128;44.642;21.188;2024-01-30T12:30:45;10.50;;;8.45;;
60665;SDS011;59128;44.642;21.188;2024-01-30T12:33:15;6.80;;;5.72;;
60665;SDS011;59128;44.642;21.188;2024-01-30T12:35:45;12.75;;;11.38;;
60665;SDS011;59128;44.642;21.188;2024-01-30T12:38:12;9.68;;;8.23;;
60665;SDS011;59128;44.642;21.188;2024-01-30T12:40:38;13.30;;;11.48;;
60665;SDS011;59128;44.642;21.188;2024-01-30T12:43:04;10.00;;;8.93;;
60665;SDS011;59128;44.642;21.188;2024-01-30T12:45:30;13.88;;;11.82;;
60665;SDS011;59128;44.642;21.188;2024-01-30T12:47:56;10.67;;;9.57;;
60665;SDS011;59128;44.642;21.188;2024-01-30T12:50:23;6.97;;;5.95;;
60665;SDS011;59128;44.642;21.188;2024-01-30T12:52:49;7.35;;;6.43;;
60665;SDS011;59128;44.642;21.188;2024-01-30T12:55:16;6.28;;;5.68;;
60665;SDS011;59128;44.642;21.188;2024-01-30T12:57:42;7.65;;;6.40;;
60665;SDS011;59128;44.642;21.188;2024-01-30T13:00:08;12.25;;;7.25;;
60665;SDS011;59128;44.642;21.188;2024-01-30T13:02:34;16.50;;;14.70;;
60665;SDS011;59128;44.642;21.188;2024-01-30T13:05:02;11.57;;;10.38;;
60665;SDS011;59128;44.642;21.188;2024-01-30T13:07:28;13.07;;;11.77;;
60665;SDS011;59128;44.642;21.188;2024-01-30T13:09:54;17.88;;;14.15;;
60665;SDS011;59128;44.642;21.188;2024-01-30T13:12:20;7.93;;;7.13;;
60665;SDS011;59128;44.642;21.188;2024-01-30T13:14:47;10.48;;;8.65;;
60665;SDS011;59128;44.642;21.188;2024-01-30T13:17:13;18.05;;;15.35;;
60665;SDS011;59128;44.642;21.188;2024-01-30T13:19:39;11.27;;;10.00;;
60665;SDS011;59128;44.642;21.188;2024-01-30T13:22:05;19.17;;;17.13;;
60665;SDS011;59128;44.642;21.188;2024-01-30T13:24:31;14.35;;;12.18;;
60665;SDS011;59128;44.642;21.188;2024-01-30T13:26:57;6.50;;;5.90;;
60665;SDS011;59128;44.642;21.188;2024-01-30T13:29:23;9.48;;;8.38;;
60665;SDS011;59128;44.642;21.188;2024-01-30T13:31:49;16.33;;;13.25;;
60665;SDS011;59128;44.642;21.188;2024-01-30T13:34:15;11.65;;;10.07;;
60665;SDS011;59128;44.642;21.188;2024-01-30T13:36:41;8.55;;;7.65;;
60665;SDS011;59128;44.642;21.188;2024-01-30T13:39:08;8.73;;;7.55;;
60665;SDS011;59128;44.642;21.188;2024-01-30T13:41:36;7.43;;;6.63;;
60665;SDS011;59128;44.642;21.188;2024-01-30T13:44:02;11.85;;;9.38;;
60665;SDS011;59128;44.642;21.188;2024-01-30T13:46:29;18.13;;;13.90;;
60665;SDS011;59128;44.642;21.188;2024-01-30T13:48:55;11.60;;;9.90;;
60665;SDS011;59128;44.642;21.188;2024-01-30T13:51:21;11.18;;;8.82;;
60665;SDS011;59128;44.642;21.188;2024-01-30T13:53:47;10.05;;;7.88;;
60665;SDS011;59128;44.642;21.188;2024-01-30T13:56:15;8.25;;;6.90;;
60665;SDS011;59128;44.642;21.188;2024-01-30T13:58:41;7.68;;;6.50;;
60665;SDS011;59128;44.642;21.188;2024-01-30T14:01:07;15.20;;;12.00;;
60665;SDS011;59128;44.642;21.188;2024-01-30T14:03:35;8.05;;;6.78;;
60665;SDS011;59128;44.642;21.188;2024-01-30T14:06:01;7.80;;;6.97;;